Time;durP1;ratioP1;P1;durP2;ratioP2;P2;SDS_P1;SDS_P2;PMS_P1;PMS_P2;Temp;Humidity;BMP_temperature;BMP_pressure;BME280_temperature;BME280_humidity;BME280_pressure;Samples;Min_cycle;Max_cycle;Signal;HPM_P1;HPM_P2
2022/01/05 00:02:17;;;;;;;8.00;4.82;;;;;;;;;;5110883;28;20023;-73
2022/01/05 00:04:43;;;;;;;6.45;4.45;;;;;;;;;;5111947;28;20023;-73
2022/01/05 00:07:11;;;;;;;6.18;4.38;;;;;;;;;;5112014;28;20028;-73
2022/01/05 00:09:38;;;;;;;7.53;4.97;;;;;;;;;;5111608;28;20122;-73
2022/01/05 00:12:04;;;;;;;7.43;4.53;;;;;;;;;;5111374;28;20351;-73
2022/01/05 00:14:30;;;;;;;7.43;4.88;;;;;;;;;;5111918;28;20027;-73
2022/01/05 00:16:56;;;;;;;5.63;3.80;;;;;;;;;;5112453;28;20482;-73
2022/01/05 00:19:22;;;;;;;7.50;4.30;;;;;;;;;;5111272;28;20042;-73
2022/01/05 00:21:48;;;;;;;5.88;4.30;;;;;;;;;;5111520;28;20111;-73
2022/01/05 00:24:17;;;;;;;6.28;3.83;;;;;;;;;;5111569;28;20019;-73
2022/01/05 00:26:43;;;;;;;5.75;3.88;;;;;;;;;;5111544;28;20043;-73
2022/01/05 00:29:10;;;;;;;6.03;3.50;;;;;;;;;;5111515;28;20100;-73
2022/01/05 00:31:36;;;;;;;6.03;3.95;;;;;;;;;;5113061;28;20024;-73
2022/01/05 00:34:02;;;;;;;4.18;3.40;;;;;;;;;;5120175;28;20073;-73
2022/01/05 00:36:37;;;;;;;5.38;3.30;;;;;;;;;;5111717;28;20028;-73
2022/01/05 00:39:04;;;;;;;5.40;3.47;;;;;;;;;;5111490;28;20024;-73
2022/01/05 00:41:30;;;;;;;5.15;3.65;;;;;;;;;;5110928;28;20396;-73
2022/01/05 00:43:56;;;;;;;5.28;3.67;;;;;;;;;;5112019;28;20106;-73
2022/01/05 00:46:22;;;;;;;5.47;3.63;;;;;;;;;;5111521;28;20027;-73
2022/01/05 00:48:48;;;;;;;4.72;3.00;;;;;;;;;;5111642;28;20547;-73
2022/01/05 00:51:15;;;;;;;5.05;3.65;;;;;;;;;;5110829;28;20110;-73
2022/01/05 00:53:42;;;;;;;5.97;3.45;;;;;;;;;;5111070;28;20042;-73
2022/01/05 00:56:08;;;;;;;3.95;3.28;;;;;;;;;;5111282;28;20039;-73
2022/01/05 00:58:34;;;;;;;4.25;2.95;;;;;;;;;;5111904;28;20550;-73
2022/01/05 01:01:00;;;;;;;4.13;2.55;;;;;;;;;;5110915;28;20022;-73
2022/01/05 01:03:28;;;;;;;4.65;2.72;;;;;;;;;;5110690;28;20115;-73
2022/01/05 01:05:54;;;;;;;4.30;3.20;;;;;;;;;;5120073;28;20050;-73
2022/01/05 01:08:21;;;;;;;3.78;2.92;;;;;;;;;;5131746;28;20469;-73
2022/01/05 01:10:47;;;;;;;3.10;2.38;;;;;;;;;;5131552;28;20048;-73
2022/01/05 01:13:17;;;;;;;3.33;2.35;;;;;;;;;;5131400;28;20026;-73
2022/01/05 01:15:52;;;;;;;3.10;2.40;;;;;;;;;;5132112;28;20415;-73
2022/01/05 01:18:20;;;;;;;2.38;2.15;;;;;;;;;;5132403;28;20027;-73
2022/01/05 01:20:47;;;;;;;3.60;2.55;;;;;;;;;;5131458;28;20023;-73
2022/01/05 01:23:14;;;;;;;4.13;2.30;;;;;;;;;;5131761;28;20034;-73
2022/01/05 01:25:40;;;;;;;2.47;1.90;;;;;;;;;;5131726;28;20067;-73
2022/01/05 01:28:06;;;;;;;3.70;2.30;;;;;;;;;;5131610;27;20038;-73
2022/01/05 01:30:33;;;;;;;3.85;2.20;;;;;;;;;;5133131;27;20126;-73
2022/01/05 01:33:00;;;;;;;3.55;2.38;;;;;;;;;;5135485;27;20500;-73
2022/01/05 01:35:27;;;;;;;4.57;1.98;;;;;;;;;;5135410;27;20046;-73
2022/01/05 01:37:56;;;;;;;2.80;2.00;;;;;;;;;;5134805;27;20050;-73
2022/01/05 01:40:22;;;;;;;2.47;1.92;;;;;;;;;;5135462;27;20023;-73
2022/01/05 01:42:49;;;;;;;2.72;2.08;;;;;;;;;;5096229;28;20131;-73
2022/01/05 01:45:15;;;;;;;3.03;2.30;;;;;;;;;;5114609;28;20055;-73
2022/01/05 01:47:41;;;;;;;2.67;1.90;;;;;;;;;;5122654;27;20354;-73
2022/01/05 01:50:08;;;;;;;2.97;1.90;;;;;;;;;;5127891;27;20100;-73
2022/01/05 01:52:34;;;;;;;2.20;1.75;;;;;;;;;;5114399;28;20035;-73
2022/01/05 01:55:00;;;;;;;2.42;1.85;;;;;;;;;;5114340;28;20020;-73
2022/01/05 01:57:29;;;;;;;2.53;1.85;;;;;;;;;;5114566;28;20027;-73
2022/01/05 01:59:58;;;;;;;3.72;1.88;;;;;;;;;;5114356;28;20385;-73
2022/01/05 02:02:24;;;;;;;3.40;1.77;;;;;;;;;;5113777;28;20124;-73
2022/01/05 02:04:51;;;;;;;3.20;2.00;;;;;;;;;;5114425;28;20072;-73
2022/01/05 02:07:17;;;;;;;2.90;1.98;;;;;;;;;;5114333;28;20040;-73
2022/01/05 02:09:43;;;;;;;2.35;1.75;;;;;;;;;;5117301;27;20054;-73
2022/01/05 02:12:09;;;;;;;3.58;1.67;;;;;;;;;;5133763;27;20042;-73
2022/01/05 02:14:36;;;;;;;1.73;1.40;;;;;;;;;;5112764;27;20098;-73
2022/01/05 02:17:07;;;;;;;2.20;1.33;;;;;;;;;;5095503;28;20051;-73
2022/01/05 02:19:33;;;;;;;2.10;1.30;;;;;;;;;;5113802;28;20420;-73
2022/01/05 02:21:59;;;;;;;1.77;1.42;;;;;;;;;;5113099;28;20020;-73
2022/01/05 02:24:25;;;;;;;2.30;1.42;;;;;;;;;;5113603;28;20101;-73
2022/01/05 02:26:52;;;;;;;2.45;1.38;;;;;;;;;;5113753;28;20119;-73
2022/01/05 02:29:18;;;;;;;1.88;1.13;;;;;;;;;;5113732;28;20047;-73
2022/01/05 02:31:44;;;;;;;1.45;1.08;;;;;;;;;;5112642;28;20024;-73
2022/01/05 02:34:10;;;;;;;1.70;1.15;;;;;;;;;;5113829;28;20023;-73
2022/01/05 02:36:36;;;;;;;1.50;1.08;;;;;;;;;;5113436;28;20054;-73
2022/01/05 02:39:03;;;;;;;1.55;1.17;;;;;;;;;;5113672;28;20027;-73
2022/01/05 02:41:29;;;;;;;1.50;1.02;;;;;;;;;;5111669;28;20031;-73
2022/01/05 02:43:55;;;;;;;1.50;1.00;;;;;;;;;;5114046;27;20118;-73
2022/01/05 02:46:22;;;;;;;1.20;1.00;;;;;;;;;;5134231;27;20024;-73
2022/01/05 02:48:49;;;;;;;1.25;0.90;;;;;;;;;;5116416;27;20074;-73
2022/01/05 02:51:15;;;;;;;1.33;1.00;;;;;;;;;;5112865;28;20495;-72
2022/01/05 02:53:41;;;;;;;1.35;1.00;;;;;;;;;;5094441;28;20028;-72
2022/01/05 02:56:07;;;;;;;1.80;1.40;;;;;;;;;;5113234;28;20026;-72
2022/01/05 02:58:34;;;;;;;1.23;0.95;;;;;;;;;;5113219;28;20024;-72
2022/01/05 03:01:00;;;;;;;1.45;1.08;;;;;;;;;;5113314;28;20020;-72
2022/01/05 03:03:26;;;;;;;1.50;1.05;;;;;;;;;;5112264;28;20039;-72
2022/01/05 03:05:52;;;;;;;2.65;1.27;;;;;;;;;;5094872;28;20077;-72
2022/01/05 03:08:18;;;;;;;1.67;1.10;;;;;;;;;;5113143;28;20100;-72
2022/01/05 03:10:44;;;;;;;1.42;1.33;;;;;;;;;;5113016;28;20102;-72
2022/01/05 03:13:10;;;;;;;1.10;1.00;;;;;;;;;;5112518;28;20032;-72
2022/01/05 03:15:36;;;;;;;1.15;1.05;;;;;;;;;;5112636;27;20019;-72
2022/01/05 03:18:03;;;;;;;1.20;1.10;;;;;;;;;;5111324;28;20521;-72
2022/01/05 03:20:30;;;;;;;1.70;1.08;;;;;;;;;;5112374;28;20374;-72
2022/01/05 03:22:57;;;;;;;1.52;1.20;;;;;;;;;;5112021;28;20438;-72
2022/01/05 03:25:23;;;;;;;1.58;1.00;;;;;;;;;;5112103;28;20039;-72
2022/01/05 03:27:49;;;;;;;1.30;1.10;;;;;;;;;;5112597;28;20030;-72
2022/01/05 03:30:17;;;;;;;1.30;1.13;;;;;;;;;;5111921;28;20552;-72
2022/01/05 03:33:26;;;;;;;1.77;0.90;;;;;;;;;;5111846;28;20485;-72
2022/01/05 03:35:34;;;;;;;1.10;0.88;;;;;;;;;;5103700;28;20024;-72
2022/01/05 03:38:00;;;;;;;2.03;1.00;;;;;;;;;;5112066;28;20081;-72
2022/01/05 03:40:27;;;;;;;2.20;1.20;;;;;;;;;;5112152;28;20445;-72
2022/01/05 03:42:53;;;;;;;1.63;1.10;;;;;;;;;;5111717;28;20051;-72
2022/01/05 03:45:20;;;;;;;1.20;1.02;;;;;;;;;;5112028;28;20108;-72
2022/01/05 03:47:46;;;;;;;1.20;1.10;;;;;;;;;;5126439;27;20027;-72
2022/01/05 03:50:12;;;;;;;2.22;1.33;;;;;;;;;;5124867;27;20036;-72
2022/01/05 03:52:38;;;;;;;1.10;0.77;;;;;;;;;;5111956;28;20024;-73
2022/01/05 03:55:06;;;;;;;1.30;0.90;;;;;;;;;;5111722;28;20393;-72
2022/01/05 03:57:32;;;;;;;1.52;1.15;;;;;;;;;;5112076;28;20019;-72
2022/01/05 03:59:58;;;;;;;1.13;1.00;;;;;;;;;;5112221;28;20433;-72
2022/01/05 04:02:24;;;;;;;1.10;1.00;;;;;;;;;;5111369;28;20028;-72
2022/01/05 04:04:51;;;;;;;1.35;0.80;;;;;;;;;;5093524;28;20024;-72
2022/01/05 04:07:17;;;;;;;1.45;0.90;;;;;;;;;;5094043;28;20024;-72
2022/01/05 04:09:44;;;;;;;1.23;0.90;;;;;;;;;;5111769;28;20046;-72
2022/01/05 04:12:10;;;;;;;1.30;0.80;;;;;;;;;;5111464;28;20019;-72
2022/01/05 04:14:36;;;;;;;1.17;0.88;;;;;;;;;;5111757;28;20027;-72
2022/01/05 04:17:03;;;;;;;1.30;0.88;;;;;;;;;;5111947;28;20031;-72
2022/01/05 04:19:29;;;;;;;1.30;0.95;;;;;;;;;;5122874;27;20019;-72
2022/01/05 04:21:55;;;;;;;1.48;0.80;;;;;;;;;;5122812;27;20478;-72
2022/01/05 04:24:21;;;;;;;1.40;0.73;;;;;;;;;;5111659;28;20477;-72
2022/01/05 04:26:48;;;;;;;0.70;0.68;;;;;;;;;;5111516;28;20291;-72
2022/01/05 04:29:14;;;;;;;0.90;0.70;;;;;;;;;;5111677;27;20054;-72
2022/01/05 04:31:40;;;;;;;1.05;0.85;;;;;;;;;;5111117;28;20123;-72
2022/01/05 04:34:06;;;;;;;1.00;0.82;;;;;;;;;;5092939;28;20054;-72
2022/01/05 04:36:33;;;;;;;2.15;0.90;;;;;;;;;;5111721;28;20473;-72
2022/01/05 04:38:59;;;;;;;1.05;0.85;;;;;;;;;;5111290;28;20023;-72
2022/01/05 04:41:25;;;;;;;1.33;1.00;;;;;;;;;;5111022;28;20031;-72
2022/01/05 04:43:51;;;;;;;0.93;0.70;;;;;;;;;;5093051;28;20486;-72
2022/01/05 04:46:17;;;;;;;1.52;0.82;;;;;;;;;;5093185;28;20027;-72
2022/01/05 04:48:43;;;;;;;1.15;0.90;;;;;;;;;;5111474;28;20032;-72
2022/01/05 04:51:09;;;;;;;1.33;0.60;;;;;;;;;;5117415;28;20083;-72
2022/01/05 04:53:35;;;;;;;1.30;0.75;;;;;;;;;;5131431;28;20478;-72
2022/01/05 04:56:01;;;;;;;1.80;0.90;;;;;;;;;;5132052;28;20023;-72
2022/01/05 04:58:28;;;;;;;1.35;0.77;;;;;;;;;;5132103;28;20026;-72
2022/01/05 05:00:54;;;;;;;1.02;0.73;;;;;;;;;;5131852;28;20023;-73
2022/01/05 05:03:20;;;;;;;1.80;0.70;;;;;;;;;;5132095;28;20023;-72
2022/01/05 05:05:46;;;;;;;0.93;0.65;;;;;;;;;;5133926;27;20059;-72
2022/01/05 05:08:12;;;;;;;1.15;0.80;;;;;;;;;;5135937;27;20023;-72
2022/01/05 05:10:38;;;;;;;1.35;0.77;;;;;;;;;;5136027;27;20060;-72
2022/01/05 05:13:11;;;;;;;1.63;0.77;;;;;;;;;;5117183;27;20448;-72
2022/01/05 05:15:37;;;;;;;1.48;0.70;;;;;;;;;;5135606;27;20024;-72
2022/01/05 05:18:03;;;;;;;0.65;0.50;;;;;;;;;;5135894;27;20034;-72
2022/01/05 05:20:29;;;;;;;1.67;1.00;;;;;;;;;;5134993;27;20122;-72
2022/01/05 05:22:56;;;;;;;0.80;0.73;;;;;;;;;;5120443;27;20091;-72
2022/01/05 05:25:22;;;;;;;0.75;0.70;;;;;;;;;;5135543;27;20052;-72
2022/01/05 05:27:48;;;;;;;1.50;0.60;;;;;;;;;;5117036;27;20057;-72
2022/01/05 05:30:14;;;;;;;2.05;0.70;;;;;;;;;;5135319;27;20213;-72
2022/01/05 05:32:40;;;;;;;1.65;0.73;;;;;;;;;;5135467;27;20394;-72
2022/01/05 05:35:06;;;;;;;1.45;0.80;;;;;;;;;;5135306;27;20043;-72
2022/01/05 05:37:32;;;;;;;1.13;0.70;;;;;;;;;;5135202;27;20077;-72
2022/01/05 05:39:58;;;;;;;1.02;0.77;;;;;;;;;;5135419;27;20389;-72
2022/01/05 05:42:26;;;;;;;0.88;0.60;;;;;;;;;;5117537;27;20023;-72
2022/01/05 05:44:52;;;;;;;1.10;0.68;;;;;;;;;;5114562;28;20374;-72
2022/01/05 05:47:19;;;;;;;0.85;0.50;;;;;;;;;;5114581;28;20047;-72
2022/01/05 05:49:46;;;;;;;1.20;0.70;;;;;;;;;;5114544;28;20471;-72
2022/01/05 05:52:12;;;;;;;1.30;0.52;;;;;;;;;;5113971;28;20043;-72
2022/01/05 05:54:39;;;;;;;0.80;0.70;;;;;;;;;;5114432;28;20023;-72
2022/01/05 05:57:06;;;;;;;1.90;0.82;;;;;;;;;;5132776;27;20023;-72
2022/01/05 05:59:32;;;;;;;1.50;0.90;;;;;;;;;;5134958;27;20020;-72
2022/01/05 06:01:58;;;;;;;1.02;0.50;;;;;;;;;;5134448;27;20493;-72
2022/01/05 06:04:24;;;;;;;1.30;0.77;;;;;;;;;;5134666;27;20020;-73
2022/01/05 06:06:50;;;;;;;0.90;0.50;;;;;;;;;;5134642;27;20019;-72
2022/01/05 06:09:17;;;;;;;1.13;0.60;;;;;;;;;;5134236;27;20046;-72
2022/01/05 06:11:43;;;;;;;0.93;0.63;;;;;;;;;;5134186;27;20491;-72
2022/01/05 06:14:09;;;;;;;0.70;0.50;;;;;;;;;;5134319;27;20027;-72
2022/01/05 06:16:35;;;;;;;1.15;0.50;;;;;;;;;;5134388;27;20106;-72
2022/01/05 06:19:01;;;;;;;1.50;0.70;;;;;;;;;;5134869;27;20047;-72
2022/01/05 06:21:27;;;;;;;1.23;0.50;;;;;;;;;;5129109;27;20043;-72
2022/01/05 06:23:53;;;;;;;0.68;0.50;;;;;;;;;;5114077;28;20090;-72
2022/01/05 06:26:20;;;;;;;0.90;0.50;;;;;;;;;;5113419;28;20078;-72
2022/01/05 06:28:46;;;;;;;1.40;0.90;;;;;;;;;;5114102;27;20138;-73
2022/01/05 06:31:12;;;;;;;1.00;0.73;;;;;;;;;;5113450;28;20054;-72
2022/01/05 06:33:38;;;;;;;2.00;0.77;;;;;;;;;;5113590;28;20031;-72
2022/01/05 06:36:05;;;;;;;0.98;0.50;;;;;;;;;;5115719;27;20027;-72
2022/01/05 06:38:31;;;;;;;1.67;0.60;;;;;;;;;;5134207;27;20031;-72
2022/01/05 06:40:57;;;;;;;0.68;0.60;;;;;;;;;;5129454;27;20027;-72
2022/01/05 06:43:23;;;;;;;1.58;0.63;;;;;;;;;;5112800;28;20035;-72
2022/01/05 06:45:49;;;;;;;2.67;0.60;;;;;;;;;;5094843;28;20498;-72
2022/01/05 06:48:15;;;;;;;1.00;0.60;;;;;;;;;;5113346;28;20035;-72
2022/01/05 06:50:41;;;;;;;0.85;0.40;;;;;;;;;;5094980;28;20055;-72
2022/01/05 06:53:07;;;;;;;2.22;0.52;;;;;;;;;;5113452;28;20478;-72
2022/01/05 06:55:34;;;;;;;1.10;0.57;;;;;;;;;;5113075;28;20024;-73
2022/01/05 06:58:00;;;;;;;0.85;0.40;;;;;;;;;;5113293;28;20510;-72
2022/01/05 07:00:27;;;;;;;1.65;0.70;;;;;;;;;;5122998;27;20027;-72
2022/01/05 07:02:53;;;;;;;0.80;0.50;;;;;;;;;;5133779;27;20020;-72
2022/01/05 07:05:20;;;;;;;1.20;0.50;;;;;;;;;;5133650;27;20035;-72
2022/01/05 07:07:46;;;;;;;0.60;0.40;;;;;;;;;;5133914;27;20440;-72
2022/01/05 07:10:12;;;;;;;0.98;0.50;;;;;;;;;;5115012;27;20038;-72
2022/01/05 07:12:39;;;;;;;0.50;0.45;;;;;;;;;;5115083;27;20369;-72
2022/01/05 07:15:06;;;;;;;1.33;0.50;;;;;;;;;;5133530;27;20041;-72
2022/01/05 07:17:32;;;;;;;1.17;0.60;;;;;;;;;;5133529;27;20019;-72
2022/01/05 07:19:58;;;;;;;1.45;0.63;;;;;;;;;;5133408;27;20023;-72
2022/01/05 07:22:24;;;;;;;0.85;0.40;;;;;;;;;;5119652;27;20030;-73
2022/01/05 07:24:52;;;;;;;0.95;0.60;;;;;;;;;;5112860;28;20506;-72
2022/01/05 07:27:18;;;;;;;0.75;0.60;;;;;;;;;;5112212;28;20173;-72
2022/01/05 07:29:44;;;;;;;0.50;0.47;;;;;;;;;;5112313;28;20040;-72
2022/01/05 07:32:10;;;;;;;0.70;0.50;;;;;;;;;;5111430;28;20509;-72
2022/01/05 07:34:36;;;;;;;0.77;0.50;;;;;;;;;;5111166;28;20079;-72
2022/01/05 07:37:02;;;;;;;1.10;0.47;;;;;;;;;;5112321;28;20027;-72
2022/01/05 07:39:29;;;;;;;0.90;0.60;;;;;;;;;;5112298;28;20043;-72
2022/01/05 07:41:55;;;;;;;1.10;0.45;;;;;;;;;;5111852;28;20023;-72
2022/01/05 07:44:21;;;;;;;0.82;0.30;;;;;;;;;;5112288;28;20039;-72
2022/01/05 07:46:47;;;;;;;0.47;0.30;;;;;;;;;;5111854;28;20028;-72
2022/01/05 07:49:13;;;;;;;1.42;0.55;;;;;;;;;;5110460;28;20031;-72
2022/01/05 07:51:39;;;;;;;0.93;0.50;;;;;;;;;;5109879;28;20483;-75
2022/01/05 07:54:05;;;;;;;0.95;0.50;;;;;;;;;;5131650;27;20028;-78
2022/01/05 07:56:32;;;;;;;0.68;0.45;;;;;;;;;;5113280;27;20118;-78
2022/01/05 07:58:58;;;;;;;1.70;0.60;;;;;;;;;;5111532;28;20065;-76
2022/01/05 08:01:24;;;;;;;1.63;0.50;;;;;;;;;;5110692;28;20051;-75
2022/01/05 08:03:51;;;;;;;3.20;0.45;;;;;;;;;;5109367;28;20536;-77
2022/01/05 08:06:17;;;;;;;0.82;0.50;;;;;;;;;;5094679;28;20030;-75
2022/01/05 08:08:44;;;;;;;2.45;0.40;;;;;;;;;;5105874;28;20052;-76
2022/01/05 08:11:11;;;;;;;1.48;0.50;;;;;;;;;;5102468;28;20023;-75
2022/01/05 08:13:37;;;;;;;0.90;0.52;;;;;;;;;;5089890;28;20083;-74
2022/01/05 08:16:03;;;;;;;1.70;0.50;;;;;;;;;;5107368;28;20081;-76
2022/01/05 08:18:29;;;;;;;3.00;0.60;;;;;;;;;;5110843;28;20020;-76
2022/01/05 08:20:55;;;;;;;1.00;0.60;;;;;;;;;;5110894;28;20032;-76
2022/01/05 08:23:22;;;;;;;0.73;0.40;;;;;;;;;;5110238;28;20023;-75
2022/01/05 08:25:49;;;;;;;1.38;0.80;;;;;;;;;;5097447;28;20290;-75
2022/01/05 08:28:19;;;;;;;0.77;0.40;;;;;;;;;;5090462;28;20052;-76
2022/01/05 08:30:45;;;;;;;0.38;0.30;;;;;;;;;;5090234;28;20444;-76
2022/01/05 08:33:12;;;;;;;3.83;0.50;;;;;;;;;;5101368;28;20039;-76
2022/01/05 08:35:38;;;;;;;1.00;0.50;;;;;;;;;;5093717;28;20039;-79
2022/01/05 08:38:05;;;;;;;2.78;0.55;;;;;;;;;;5110541;28;20046;-76
2022/01/05 08:40:32;;;;;;;0.88;0.50;;;;;;;;;;5087364;28;20077;-76
2022/01/05 08:42:58;;;;;;;1.55;0.60;;;;;;;;;;5114841;28;20032;-76
2022/01/05 08:45:25;;;;;;;1.92;0.60;;;;;;;;;;5115545;28;20027;-77
2022/01/05 08:47:52;;;;;;;1.83;0.50;;;;;;;;;;5115127;28;20030;-77
2022/01/05 08:50:22;;;;;;;1.73;0.50;;;;;;;;;;5112868;28;20038;-81
2022/01/05 08:52:48;;;;;;;3.65;0.70;;;;;;;;;;5116525;28;20122;-80
2022/01/05 08:55:15;;;;;;;0.30;0.30;;;;;;;;;;5096131;28;20028;-79
2022/01/05 08:57:42;;;;;;;0.65;0.45;;;;;;;;;;5115102;28;20020;-79
2022/01/05 09:00:09;;;;;;;1.95;0.80;;;;;;;;;;5114805;28;20035;-77
2022/01/05 09:02:36;;;;;;;2.92;0.77;;;;;;;;;;5093073;28;20379;-78
2022/01/05 09:05:03;;;;;;;1.95;0.50;;;;;;;;;;5100351;28;20407;-78
2022/01/05 09:07:29;;;;;;;2.10;0.50;;;;;;;;;;5096140;28;20439;-78
2022/01/05 09:09:55;;;;;;;1.52;0.50;;;;;;;;;;5109975;27;20512;-79
2022/01/05 09:12:21;;;;;;;0.77;0.47;;;;;;;;;;5100583;28;20409;-79
2022/01/05 09:14:48;;;;;;;7.20;0.70;;;;;;;;;;5115579;28;20043;-82
2022/01/05 09:17:14;;;;;;;1.45;0.32;;;;;;;;;;5113772;27;20486;-78
2022/01/05 09:19:42;;;;;;;1.92;0.60;;;;;;;;;;5114794;27;20043;-76
2022/01/05 09:22:09;;;;;;;3.15;0.50;;;;;;;;;;5099453;27;20027;-79
2022/01/05 09:24:39;;;;;;;1.23;0.52;;;;;;;;;;5123136;27;20031;-78
2022/01/05 09:27:06;;;;;;;2.20;0.75;;;;;;;;;;5125101;27;20027;-77
2022/01/05 09:29:33;;;;;;;1.92;0.70;;;;;;;;;;5127709;27;20126;-76
2022/01/05 09:32:09;;;;;;;2.42;0.60;;;;;;;;;;5093142;28;20024;-76
2022/01/05 09:34:39;;;;;;;0.70;0.50;;;;;;;;;;5117092;27;20420;-75
2022/01/05 09:37:27;;;;;;;1.95;0.65;;;;;;;;;;5091309;28;20518;-76
2022/01/05 09:42:39;;;;;;;3.47;0.63;;;;;;;;;;5124989;27;20112;-75
2022/01/05 09:45:15;;;;;;;4.22;0.50;;;;;;;;;;5105019;28;20128;-77
2022/01/05 09:47:48;;;;;;;3.25;0.50;;;;;;;;;;5100605;27;20034;-74
2022/01/05 09:50:14;;;;;;;1.45;0.60;;;;;;;;;;5107676;27;20050;-75
2022/01/05 09:52:45;;;;;;;1.10;0.45;;;;;;;;;;5127444;27;20024;-75
2022/01/05 09:55:12;;;;;;;2.35;0.70;;;;;;;;;;5082713;28;20348;-74
2022/01/05 09:57:40;;;;;;;4.63;0.55;;;;;;;;;;5109800;27;20027;-75
2022/01/05 10:00:07;;;;;;;1.50;0.52;;;;;;;;;;5119781;27;20573;-77
2022/01/05 10:02:33;;;;;;;1.15;0.47;;;;;;;;;;5129978;27;20065;-77
2022/01/05 10:05:00;;;;;;;1.77;0.40;;;;;;;;;;5114062;27;20028;-77
2022/01/05 10:07:28;;;;;;;2.72;0.80;;;;;;;;;;5118506;27;20508;-77
2022/01/05 10:09:54;;;;;;;1.17;0.60;;;;;;;;;;5116921;27;20041;-75
2022/01/05 10:12:22;;;;;;;1.38;0.55;;;;;;;;;;5126031;27;20092;-75
2022/01/05 10:14:49;;;;;;;4.18;0.70;;;;;;;;;;5126701;27;20114;-73
2022/01/05 10:17:40;;;;;;;1.38;0.80;;;;;;;;;;5116884;27;20021;-78
2022/01/05 10:20:08;;;;;;;1.60;0.50;;;;;;;;;;5126747;27;20023;-78
2022/01/05 10:22:36;;;;;;;0.32;0.30;;;;;;;;;;5117651;27;20122;-78
2022/01/05 10:25:04;;;;;;;1.13;0.40;;;;;;;;;;5110591;27;20028;-76
2022/01/05 10:27:31;;;;;;;1.55;0.40;;;;;;;;;;5121008;27;20024;-74
2022/01/05 10:30:01;;;;;;;2.15;0.70;;;;;;;;;;5124334;27;20411;-73
2022/01/05 10:32:33;;;;;;;2.60;0.50;;;;;;;;;;5122553;27;20035;-73
2022/01/05 10:34:59;;;;;;;0.70;0.40;;;;;;;;;;5125882;27;20058;-75
2022/01/05 10:37:26;;;;;;;2.85;0.63;;;;;;;;;;5123594;27;20028;-74
2022/01/05 10:40:03;;;;;;;1.67;0.50;;;;;;;;;;5127706;27;20213;-74
2022/01/05 10:42:32;;;;;;;0.40;0.30;;;;;;;;;;5096356;28;20024;-75
2022/01/05 10:44:59;;;;;;;0.80;0.40;;;;;;;;;;5100158;28;20042;-74
2022/01/05 10:47:28;;;;;;;1.33;0.47;;;;;;;;;;5123883;27;20116;-74
2022/01/05 10:49:54;;;;;;;1.17;0.40;;;;;;;;;;5118751;27;20045;-74
2022/01/05 10:52:23;;;;;;;1.08;0.55;;;;;;;;;;5119571;27;20059;-75
2022/01/05 10:54:50;;;;;;;0.95;0.32;;;;;;;;;;5115259;27;20114;-76
2022/01/05 10:57:17;;;;;;;0.60;0.30;;;;;;;;;;5113143;27;20505;-73
2022/01/05 10:59:45;;;;;;;2.85;0.52;;;;;;;;;;5089364;28;20451;-75
2022/01/05 11:02:21;;;;;;;2.72;0.40;;;;;;;;;;5090737;28;20020;-75
2022/01/05 11:04:48;;;;;;;0.63;0.30;;;;;;;;;;5080459;28;20028;-76
2022/01/05 11:07:24;;;;;;;1.00;0.50;;;;;;;;;;5120099;27;20052;-76
2022/01/05 11:09:58;;;;;;;1.98;0.77;;;;;;;;;;5115074;27;20030;-77
2022/01/05 11:12:32;;;;;;;0.98;0.40;;;;;;;;;;5098921;27;20024;-77
2022/01/05 11:15:17;;;;;;;0.90;0.40;;;;;;;;;;5104760;27;20019;-75
2022/01/05 11:18:03;;;;;;;0.65;0.25;;;;;;;;;;5119835;27;20038;-74
2022/01/05 11:20:29;;;;;;;1.25;0.43;;;;;;;;;;5089564;27;20152;-74
2022/01/05 11:22:55;;;;;;;0.45;0.20;;;;;;;;;;5124151;27;20798;-76
2022/01/05 11:25:21;;;;;;;0.85;0.47;;;;;;;;;;5095111;28;20055;-76
2022/01/05 11:27:47;;;;;;;2.22;0.40;;;;;;;;;;5107627;28;20077;-77
2022/01/05 11:30:13;;;;;;;2.80;0.32;;;;;;;;;;5092008;28;20048;-75
2022/01/05 11:32:40;;;;;;;4.47;0.40;;;;;;;;;;5094646;28;20019;-74
2022/01/05 11:35:09;;;;;;;1.17;0.22;;;;;;;;;;5096962;28;20020;-77
2022/01/05 11:37:35;;;;;;;0.80;0.30;;;;;;;;;;5108475;27;20030;-76
2022/01/05 11:40:04;;;;;;;1.67;0.80;;;;;;;;;;5116124;27;20376;-76
2022/01/05 11:42:32;;;;;;;1.13;0.30;;;;;;;;;;5104949;28;20102;-74
2022/01/05 11:44:58;;;;;;;1.50;0.43;;;;;;;;;;5109415;28;20031;-73
2022/01/05 11:47:28;;;;;;;0.43;0.20;;;;;;;;;;5099246;27;20019;-72
2022/01/05 11:49:56;;;;;;;2.28;0.30;;;;;;;;;;5106624;28;20072;-73
2022/01/05 11:52:41;;;;;;;2.38;0.55;;;;;;;;;;5103381;28;20027;-72
2022/01/05 11:55:07;;;;;;;1.17;0.63;;;;;;;;;;5089960;28;20580;-72
2022/01/05 11:57:33;;;;;;;0.82;0.40;;;;;;;;;;5090299;28;20487;-72
2022/01/05 12:00:18;;;;;;;0.55;0.30;;;;;;;;;;5098997;28;20053;-71
2022/01/05 12:02:45;;;;;;;2.13;0.75;;;;;;;;;;5104263;28;20876;-72
2022/01/05 12:05:11;;;;;;;0.95;0.40;;;;;;;;;;5111039;28;20035;-74
2022/01/05 12:07:40;;;;;;;1.92;0.60;;;;;;;;;;5110940;28;20035;-72
2022/01/05 12:10:23;;;;;;;1.70;0.50;;;;;;;;;;5126535;27;20481;-76
2022/01/05 12:13:01;;;;;;;1.45;0.45;;;;;;;;;;5112951;27;20481;-75
2022/01/05 12:15:36;;;;;;;1.23;0.57;;;;;;;;;;5072054;28;20062;-75
2022/01/05 12:18:09;;;;;;;2.92;0.60;;;;;;;;;;5107409;28;20398;-78
2022/01/05 12:20:36;;;;;;;1.92;0.50;;;;;;;;;;5110828;28;20142;-76
2022/01/05 12:23:19;;;;;;;1.80;0.75;;;;;;;;;;5092114;28;20027;-76
2022/01/05 12:26:05;;;;;;;1.77;0.60;;;;;;;;;;5092300;28;20025;-77
2022/01/05 12:28:32;;;;;;;1.70;0.40;;;;;;;;;;5092289;28;20073;-77
2022/01/05 12:30:58;;;;;;;2.03;0.70;;;;;;;;;;5092729;28;20422;-76
2022/01/05 12:33:25;;;;;;;2.22;0.50;;;;;;;;;;5110191;28;20019;-76
2022/01/05 12:35:53;;;;;;;1.50;0.65;;;;;;;;;;5112039;28;20031;-77
2022/01/05 12:38:32;;;;;;;4.30;1.02;;;;;;;;;;5112889;28;20393;-77
2022/01/05 12:41:02;;;;;;;9.15;1.33;;;;;;;;;;5107837;28;20019;-76
2022/01/05 12:43:31;;;;;;;2.15;0.30;;;;;;;;;;5091856;28;20024;-76
2022/01/05 12:46:08;;;;;;;1.58;0.68;;;;;;;;;;5110512;28;20028;-76
2022/01/05 12:48:39;;;;;;;1.17;0.50;;;;;;;;;;5110333;28;20069;-77
2022/01/05 12:51:17;;;;;;;1.38;0.43;;;;;;;;;;5110785;28;20085;-76
2022/01/05 12:53:52;;;;;;;1.42;0.75;;;;;;;;;;5110697;28;20085;-77
2022/01/05 12:56:22;;;;;;;4.22;0.65;;;;;;;;;;5131065;28;20525;-76
2022/01/05 12:58:51;;;;;;;1.52;0.82;;;;;;;;;;5130870;28;20115;-76
2022/01/05 13:01:17;;;;;;;3.58;0.70;;;;;;;;;;5130663;28;20486;-78
2022/01/05 13:03:44;;;;;;;2.47;0.70;;;;;;;;;;5103232;28;20032;-76
2022/01/05 13:06:18;;;;;;;1.30;0.60;;;;;;;;;;5091046;28;20028;-77
2022/01/05 13:08:47;;;;;;;1.48;0.40;;;;;;;;;;5101304;28;20031;-77
2022/01/05 13:11:14;;;;;;;4.72;0.82;;;;;;;;;;5108074;28;20057;-77
2022/01/05 13:13:42;;;;;;;3.92;0.80;;;;;;;;;;5090507;28;20104;-77
2022/01/05 13:16:09;;;;;;;2.13;0.70;;;;;;;;;;5091845;28;20024;-74
2022/01/05 13:18:35;;;;;;;4.63;0.65;;;;;;;;;;5105202;28;20111;-72
2022/01/05 13:21:04;;;;;;;1.20;0.68;;;;;;;;;;5094340;28;20027;-72
2022/01/05 13:23:30;;;;;;;1.20;0.63;;;;;;;;;;5079675;28;20028;-72
2022/01/05 13:25:56;;;;;;;2.30;0.70;;;;;;;;;;5091546;28;20024;-73
2022/01/05 13:28:23;;;;;;;1.55;0.60;;;;;;;;;;5089236;28;20043;-72
2022/01/05 13:30:49;;;;;;;1.38;0.60;;;;;;;;;;5095204;28;20032;-73
2022/01/05 13:33:15;;;;;;;1.52;0.50;;;;;;;;;;5075112;28;20032;-73
2022/01/05 13:35:43;;;;;;;1.65;0.60;;;;;;;;;;5104881;27;20366;-74
2022/01/05 13:38:17;;;;;;;1.73;0.52;;;;;;;;;;5107567;28;20020;-74
2022/01/05 13:40:44;;;;;;;6.07;0.70;;;;;;;;;;5110741;28;20450;-74
2022/01/05 13:43:12;;;;;;;1.17;0.45;;;;;;;;;;5109007;28;20507;-74
2022/01/05 13:45:46;;;;;;;1.88;0.50;;;;;;;;;;5096492;28;20070;-74
2022/01/05 13:48:22;;;;;;;2.70;0.80;;;;;;;;;;5103946;28;20085;-73
2022/01/05 13:50:49;;;;;;;2.05;0.70;;;;;;;;;;5105876;28;20034;-73
2022/01/05 13:53:16;;;;;;;1.73;0.60;;;;;;;;;;5111016;28;20505;-73
2022/01/05 13:55:56;;;;;;;1.48;0.60;;;;;;;;;;5099699;28;20012;-73
2022/01/05 13:58:22;;;;;;;1.65;0.60;;;;;;;;;;5111235;28;20042;-73
2022/01/05 14:00:50;;;;;;;1.45;0.65;;;;;;;;;;5098344;28;20076;-73
2022/01/05 14:03:35;;;;;;;2.20;0.70;;;;;;;;;;5108976;28;20096;-73
2022/01/05 14:06:03;;;;;;;2.67;0.77;;;;;;;;;;5099198;28;20486;-73
2022/01/05 14:08:29;;;;;;;2.25;0.63;;;;;;;;;;5105015;27;20065;-73
2022/01/05 14:11:09;;;;;;;1.38;0.43;;;;;;;;;;5094389;28;20031;-73
2022/01/05 14:13:45;;;;;;;2.33;0.50;;;;;;;;;;5099513;28;20030;-74
2022/01/05 14:16:16;;;;;;;1.08;0.50;;;;;;;;;;5106052;28;20031;-73
2022/01/05 14:18:43;;;;;;;2.63;0.73;;;;;;;;;;5081760;28;20274;-72
2022/01/05 14:21:09;;;;;;;1.58;0.75;;;;;;;;;;5088329;28;20046;-74
2022/01/05 14:23:51;;;;;;;2.72;0.63;;;;;;;;;;5101616;28;20032;-73
2022/01/05 14:26:23;;;;;;;3.03;0.63;;;;;;;;;;5110231;27;20037;-73
2022/01/05 14:28:50;;;;;;;2.50;0.65;;;;;;;;;;5092835;28;20051;-73
2022/01/05 14:31:17;;;;;;;2.88;0.63;;;;;;;;;;5108866;28;20030;-74
2022/01/05 14:33:50;;;;;;;1.42;0.70;;;;;;;;;;5105385;28;20513;-78
2022/01/05 14:36:22;;;;;;;1.58;0.70;;;;;;;;;;5108470;28;20023;-76
2022/01/05 14:39:13;;;;;;;1.90;0.70;;;;;;;;;;5100210;28;20024;-76
2022/01/05 14:41:43;;;;;;;1.88;0.60;;;;;;;;;;5093144;28;20123;-75
2022/01/05 14:44:12;;;;;;;2.28;0.73;;;;;;;;;;5104687;28;20089;-75
2022/01/05 14:46:39;;;;;;;1.55;0.50;;;;;;;;;;5092229;28;20036;-76
2022/01/05 14:49:06;;;;;;;1.17;0.60;;;;;;;;;;5097043;28;20028;-76
2022/01/05 14:51:33;;;;;;;1.83;0.77;;;;;;;;;;5110508;28;20032;-74